createdAt,value
2018-09-30T00:01:01.099Z,3.83
2018-09-30T00:03:35.386Z,2.77
2018-09-30T00:06:09.824Z,3.33
2018-09-30T00:08:44.127Z,3.08
2018-09-30T00:11:18.608Z,3.20
2018-09-30T00:13:52.904Z,3.60
2018-09-30T00:16:27.328Z,3.40
2018-09-30T00:19:01.912Z,3.40
2018-09-30T00:21:36.252Z,2.77
2018-09-30T00:24:16.225Z,3.60
2018-09-30T00:26:55.798Z,3.20
2018-09-30T00:29:30.862Z,3.30
2018-09-30T00:32:05.256Z,3.77
2018-09-30T00:34:39.660Z,8.73
2018-09-30T00:37:14.055Z,10.35
2018-09-30T00:39:48.444Z,5.25
2018-09-30T00:42:22.927Z,4.90
2018-09-30T00:44:57.276Z,3.87
2018-09-30T00:47:31.703Z,3.85
2018-09-30T00:50:06.355Z,3.58
2018-09-30T00:52:40.748Z,3.20
2018-09-30T00:55:15.042Z,2.85
2018-09-30T00:57:49.450Z,3.55
2018-09-30T01:00:23.731Z,3.00
2018-09-30T01:02:58.980Z,3.42
2018-09-30T01:05:33.392Z,3.10
2018-09-30T01:08:07.802Z,4.65
2018-09-30T01:10:42.036Z,3.12
2018-09-30T01:13:16.565Z,3.10
2018-09-30T01:15:51.060Z,2.47
2018-09-30T01:18:25.499Z,2.87
2018-09-30T01:20:59.887Z,2.75
2018-09-30T01:23:34.423Z,2.92
2018-09-30T01:26:08.749Z,2.90
2018-09-30T01:28:43.168Z,3.27
2018-09-30T01:31:17.652Z,3.75
2018-09-30T01:33:51.999Z,4.10
2018-09-30T01:36:26.475Z,5.60
2018-09-30T01:39:00.832Z,7.28
2018-09-30T01:41:35.393Z,10.35
2018-09-30T01:44:09.815Z,3.37
2018-09-30T01:46:44.312Z,2.98
2018-09-30T01:49:18.755Z,4.20
2018-09-30T01:52:04.508Z,2.90
2018-09-30T01:54:38.830Z,3.35
2018-09-30T01:57:13.137Z,3.35
2018-09-30T01:59:47.574Z,3.35
2018-09-30T02:02:22.072Z,3.80
2018-09-30T02:04:56.431Z,3.10
2018-09-30T02:07:30.830Z,3.15
2018-09-30T02:10:05.416Z,3.72
2018-09-30T02:12:39.807Z,2.77
2018-09-30T02:15:14.284Z,3.47
2018-09-30T02:17:48.595Z,3.05
2018-09-30T02:20:23.044Z,3.02
2018-09-30T02:22:57.431Z,3.80
2018-09-30T02:25:31.891Z,3.00
2018-09-30T02:28:06.400Z,3.58
2018-09-30T02:30:40.802Z,3.77
2018-09-30T02:33:15.275Z,7.10
2018-09-30T02:35:49.540Z,6.47
2018-09-30T02:38:24.003Z,4.75
2018-09-30T02:40:58.520Z,4.10
2018-09-30T02:43:33.113Z,3.25
2018-09-30T02:46:07.400Z,3.50
2018-09-30T02:48:41.622Z,3.12
2018-09-30T02:51:16.083Z,3.17
2018-09-30T02:53:50.515Z,3.25
2018-09-30T02:56:24.824Z,3.87
2018-09-30T02:58:59.125Z,3.00
2018-09-30T03:01:33.542Z,3.67
2018-09-30T03:04:07.931Z,3.98
2018-09-30T03:06:47.700Z,3.30
2018-09-30T03:09:22.005Z,3.45
2018-09-30T03:11:56.505Z,3.20
2018-09-30T03:14:30.889Z,3.45
2018-09-30T03:17:05.417Z,3.30
2018-09-30T03:19:39.940Z,3.50
2018-09-30T03:22:14.224Z,3.05
2018-09-30T03:24:48.617Z,3.30
2018-09-30T03:27:23.031Z,4.00
2018-09-30T03:29:57.791Z,3.50
2018-09-30T03:32:32.259Z,4.20
2018-09-30T03:35:06.601Z,10.65
2018-09-30T03:37:41.308Z,10.18
2018-09-30T03:40:15.613Z,6.72
2018-09-30T03:42:49.876Z,5.70
2018-09-30T03:45:24.210Z,3.37
2018-09-30T03:47:58.586Z,3.42
2018-09-30T03:50:32.875Z,3.45
2018-09-30T03:53:07.207Z,2.65
2018-09-30T03:55:41.635Z,3.25
2018-09-30T03:58:16.120Z,3.70
2018-09-30T04:00:50.572Z,5.75
2018-09-30T04:03:25.042Z,7.75
2018-09-30T04:05:59.335Z,7.97
2018-09-30T04:08:33.584Z,7.37
2018-09-30T04:11:07.959Z,6.15
2018-09-30T04:13:42.399Z,5.62
2018-09-30T04:16:16.780Z,5.47
2018-09-30T04:18:51.115Z,4.90
2018-09-30T04:21:25.499Z,5.25
2018-09-30T04:24:05.403Z,4.42
2018-09-30T04:26:40.845Z,4.70
2018-09-30T04:29:15.108Z,3.62
2018-09-30T04:31:49.404Z,5.03
2018-09-30T04:34:23.733Z,6.70
2018-09-30T04:36:58.248Z,11.12
2018-09-30T04:39:32.835Z,8.18
2018-09-30T04:42:07.161Z,7.40
2018-09-30T04:44:41.551Z,4.00
2018-09-30T04:47:15.840Z,2.75
2018-09-30T04:49:50.169Z,3.58
2018-09-30T04:52:24.418Z,3.40
2018-09-30T04:54:58.831Z,3.22
2018-09-30T04:57:33.290Z,2.90
2018-09-30T05:00:07.733Z,2.92
2018-09-30T05:02:42.242Z,3.02
2018-09-30T05:05:16.626Z,3.17
2018-09-30T05:07:51.036Z,2.92
2018-09-30T05:10:25.491Z,3.80
2018-09-30T05:12:59.789Z,4.00
2018-09-30T05:15:34.044Z,3.77
2018-09-30T05:18:08.459Z,3.98
2018-09-30T05:20:42.939Z,3.58
2018-09-30T05:23:17.379Z,4.00
2018-09-30T05:25:51.791Z,3.40
2018-09-30T05:28:26.333Z,3.35
2018-09-30T05:31:00.692Z,3.65
2018-09-30T05:33:35.079Z,5.53
2018-09-30T05:36:09.392Z,8.30
2018-09-30T05:38:43.754Z,9.95
2018-09-30T05:41:18.185Z,10.68
2018-09-30T05:43:52.432Z,6.47
2018-09-30T05:46:26.796Z,4.75
2018-09-30T05:49:01.172Z,3.10
2018-09-30T05:51:35.626Z,3.40
2018-09-30T05:54:09.935Z,3.50
2018-09-30T05:56:44.244Z,2.92
2018-09-30T05:59:18.510Z,3.12
2018-09-30T06:01:52.922Z,3.90
2018-09-30T06:04:27.342Z,2.80
2018-09-30T06:07:01.777Z,3.85
2018-09-30T06:09:36.431Z,3.22
2018-09-30T06:12:10.809Z,3.95
2018-09-30T06:14:45.271Z,3.60
2018-09-30T06:17:26.440Z,4.37
2018-09-30T06:20:00.991Z,4.60
2018-09-30T06:22:35.676Z,4.58
2018-09-30T06:25:10.075Z,4.15
2018-09-30T06:27:44.674Z,4.75
2018-09-30T06:30:19.217Z,4.83
2018-09-30T06:32:53.665Z,5.50
2018-09-30T06:35:28.055Z,6.30
2018-09-30T06:38:02.757Z,11.90
2018-09-30T06:40:37.376Z,8.88
2018-09-30T06:43:11.784Z,5.70
2018-09-30T06:45:46.233Z,5.45
2018-09-30T06:48:20.806Z,5.15
2018-09-30T06:50:55.628Z,6.35
2018-09-30T06:53:29.950Z,5.97
2018-09-30T06:56:04.390Z,5.78
2018-09-30T06:58:38.846Z,5.42
2018-09-30T07:01:13.247Z,6.35
2018-09-30T07:03:47.993Z,6.55
2018-09-30T07:06:22.597Z,6.50
2018-09-30T07:08:57.255Z,7.12
2018-09-30T07:11:31.770Z,7.03
2018-09-30T07:14:06.387Z,8.00
2018-09-30T07:16:40.993Z,7.22
2018-09-30T07:19:15.551Z,9.13
2018-09-30T07:21:49.966Z,8.03
2018-09-30T07:24:24.447Z,5.90
2018-09-30T07:26:59.132Z,7.67
2018-09-30T07:29:33.835Z,6.75
2018-09-30T07:32:08.314Z,7.20
2018-09-30T07:34:42.892Z,8.50
2018-09-30T07:37:17.575Z,10.55
2018-09-30T07:39:51.988Z,11.40
2018-09-30T07:42:26.480Z,8.48
2018-09-30T07:45:00.899Z,6.72
2018-09-30T07:47:35.455Z,7.70
2018-09-30T07:50:10.043Z,6.67
2018-09-30T07:52:44.628Z,6.92
2018-09-30T07:55:19.285Z,6.15
2018-09-30T07:57:54.003Z,6.58
2018-09-30T08:00:28.572Z,6.95
2018-09-30T08:03:03.173Z,6.87
2018-09-30T08:05:37.874Z,7.25
2018-09-30T08:08:12.427Z,6.92
2018-09-30T08:10:47.048Z,6.80
2018-09-30T08:13:21.578Z,8.45
2018-09-30T08:15:56.182Z,6.80
2018-09-30T08:18:30.798Z,6.67
2018-09-30T08:21:05.505Z,7.70
2018-09-30T08:23:40.179Z,7.80
2018-09-30T08:26:14.712Z,7.22
2018-09-30T08:28:49.302Z,8.03
2018-09-30T08:31:23.784Z,7.50
2018-09-30T08:33:58.710Z,7.65
2018-09-30T08:36:33.452Z,10.93
2018-09-30T08:39:08.690Z,13.23
2018-09-30T08:41:43.262Z,31.57
2018-09-30T08:44:17.945Z,11.38
2018-09-30T08:46:52.724Z,9.28
2018-09-30T08:49:27.199Z,10.03
2018-09-30T08:52:01.553Z,9.60
2018-09-30T08:54:36.049Z,10.08
2018-09-30T08:57:10.730Z,9.10
2018-09-30T08:59:45.171Z,10.28
2018-09-30T09:02:19.660Z,9.83
2018-09-30T09:04:54.088Z,11.00
2018-09-30T09:07:28.536Z,11.75
2018-09-30T09:10:03.004Z,12.55
2018-09-30T09:12:37.508Z,11.03
2018-09-30T09:15:12.234Z,12.63
2018-09-30T09:17:46.709Z,13.18
2018-09-30T09:20:21.172Z,12.63
2018-09-30T09:22:55.873Z,14.33
2018-09-30T09:25:30.459Z,14.20
2018-09-30T09:28:05.286Z,13.80
2018-09-30T09:30:39.800Z,12.78
2018-09-30T09:33:14.246Z,12.75
2018-09-30T09:35:48.719Z,15.50
2018-09-30T09:38:23.024Z,14.15
2018-09-30T09:40:57.464Z,17.75
2018-09-30T09:43:31.771Z,15.03
2018-09-30T09:46:06.291Z,15.38
2018-09-30T09:48:40.673Z,12.18
2018-09-30T09:51:14.976Z,11.97
2018-09-30T09:53:49.444Z,11.25
2018-09-30T09:56:23.703Z,11.25
2018-09-30T09:58:58.148Z,10.88
2018-09-30T10:01:32.412Z,11.50
2018-09-30T10:04:06.701Z,9.65
2018-09-30T10:06:41.121Z,14.95
2018-09-30T10:09:15.405Z,15.60
2018-09-30T10:11:49.672Z,20.88
2018-09-30T10:14:24.147Z,11.22
2018-09-30T10:16:58.444Z,8.58
2018-09-30T10:19:33.154Z,8.43
2018-09-30T10:22:07.687Z,8.48
2018-09-30T10:24:42.071Z,7.75
2018-09-30T10:27:16.640Z,8.50
2018-09-30T10:29:50.932Z,8.30
2018-09-30T10:32:25.690Z,8.33
2018-09-30T10:35:00.264Z,7.70
2018-09-30T10:37:34.671Z,8.48
2018-09-30T10:40:08.943Z,8.63
2018-09-30T10:42:43.585Z,9.23
2018-09-30T10:45:18.250Z,8.90
2018-09-30T10:47:52.740Z,9.38
2018-09-30T10:50:27.008Z,8.75
2018-09-30T10:53:01.261Z,8.93
2018-09-30T10:55:35.576Z,8.45
2018-09-30T10:58:10.254Z,8.50
2018-09-30T11:00:44.716Z,7.95
2018-09-30T11:03:19.031Z,7.80
2018-09-30T11:05:53.400Z,12.85
2018-09-30T11:08:27.794Z,11.88
2018-09-30T11:11:02.157Z,13.05
2018-09-30T11:13:36.572Z,9.20
2018-09-30T11:16:10.890Z,9.13
2018-09-30T11:18:45.450Z,7.40
2018-09-30T11:21:19.959Z,7.33
2018-09-30T11:23:54.403Z,7.25
2018-09-30T11:26:28.890Z,7.15
2018-09-30T11:29:03.487Z,7.42
2018-09-30T11:31:37.977Z,6.35
2018-09-30T11:34:12.412Z,6.72
2018-09-30T11:36:46.875Z,6.40
2018-09-30T11:39:21.329Z,6.22
2018-09-30T11:41:55.583Z,6.62
2018-09-30T11:44:30.139Z,6.20
2018-09-30T11:47:04.567Z,6.50
2018-09-30T11:49:39.027Z,6.28
2018-09-30T11:52:13.372Z,5.92
2018-09-30T11:54:47.671Z,6.60
2018-09-30T11:57:22.144Z,6.60
2018-09-30T11:59:56.565Z,6.40
2018-09-30T12:02:30.856Z,6.03
2018-09-30T12:05:05.268Z,6.30
2018-09-30T12:07:39.772Z,5.53
2018-09-30T12:10:14.255Z,9.05
2018-09-30T12:12:48.973Z,10.60
2018-09-30T12:15:23.647Z,6.33
2018-09-30T12:17:58.225Z,6.58
2018-09-30T12:20:32.613Z,5.42
2018-09-30T12:23:07.331Z,5.72
2018-09-30T12:25:41.923Z,6.58
2018-09-30T12:28:16.286Z,5.40
2018-09-30T12:30:50.878Z,5.92
2018-09-30T12:33:25.159Z,5.55
2018-09-30T12:35:59.613Z,5.60
2018-09-30T12:38:33.999Z,4.70
2018-09-30T12:41:08.659Z,4.40
2018-09-30T12:43:43.028Z,4.20
2018-09-30T12:46:17.735Z,5.22
2018-09-30T12:48:52.143Z,4.60
2018-09-30T12:51:26.471Z,4.47
2018-09-30T12:54:00.723Z,4.40
2018-09-30T12:56:35.076Z,4.75
2018-09-30T12:59:09.335Z,4.20
2018-09-30T13:01:43.902Z,4.00
2018-09-30T13:04:18.346Z,4.25
2018-09-30T13:06:52.664Z,4.40
2018-09-30T13:09:27.083Z,6.10
2018-09-30T13:12:01.562Z,9.93
2018-09-30T13:14:36.144Z,12.13
2018-09-30T13:17:10.659Z,8.53
2018-09-30T13:19:45.212Z,4.72
2018-09-30T13:22:19.576Z,5.30
2018-09-30T13:24:53.927Z,4.50
2018-09-30T13:27:28.379Z,5.10
2018-09-30T13:30:02.785Z,4.65
2018-09-30T13:32:37.255Z,4.30
2018-09-30T13:35:12.082Z,4.22
2018-09-30T13:37:46.624Z,4.33
2018-09-30T13:40:20.994Z,3.98
2018-09-30T13:42:55.412Z,4.08
2018-09-30T13:45:29.775Z,4.75
2018-09-30T13:48:04.213Z,4.75
2018-09-30T13:50:38.515Z,3.83
2018-09-30T13:53:12.935Z,3.90
2018-09-30T13:55:47.578Z,4.35
2018-09-30T13:58:22.004Z,5.15
2018-09-30T14:00:56.637Z,4.87
2018-09-30T14:03:30.970Z,4.10
2018-09-30T14:06:05.247Z,4.67
2018-09-30T14:08:39.589Z,6.50
2018-09-30T14:11:14.096Z,5.25
2018-09-30T14:13:48.487Z,12.28
2018-09-30T14:16:22.871Z,11.30
2018-09-30T14:18:57.306Z,5.05
2018-09-30T14:21:31.699Z,4.62
2018-09-30T14:24:06.252Z,4.58
2018-09-30T14:26:40.660Z,4.65
2018-09-30T14:29:15.017Z,4.20
2018-09-30T14:31:49.452Z,4.60
2018-09-30T14:34:23.740Z,4.90
2018-09-30T14:36:58.079Z,4.22
2018-09-30T14:39:32.447Z,4.60
2018-09-30T14:42:06.952Z,4.67
2018-09-30T14:44:41.339Z,5.33
2018-09-30T14:47:15.907Z,5.70
2018-09-30T14:49:50.500Z,4.50
2018-09-30T14:52:24.969Z,4.25
2018-09-30T14:54:59.476Z,5.40
2018-09-30T14:57:33.923Z,4.72
2018-09-30T15:00:08.471Z,5.15
2018-09-30T15:02:43.020Z,4.80
2018-09-30T15:05:17.354Z,4.55
2018-09-30T15:07:51.813Z,4.45
2018-09-30T15:10:26.321Z,6.45
2018-09-30T15:13:00.640Z,17.23
2018-09-30T15:15:34.970Z,15.45
2018-09-30T15:18:09.520Z,7.80
2018-09-30T15:20:44.104Z,6.97
2018-09-30T15:23:18.505Z,4.45
2018-09-30T15:25:52.932Z,5.08
2018-09-30T15:28:27.286Z,5.12
2018-09-30T15:31:01.640Z,4.40
2018-09-30T15:36:22.152Z,5.12
2018-09-30T15:38:56.664Z,4.35
2018-09-30T15:41:30.989Z,4.50
2018-09-30T15:44:05.415Z,4.60
2018-09-30T15:46:39.860Z,4.62
2018-09-30T15:49:14.291Z,4.20
2018-09-30T15:51:48.680Z,4.35
2018-09-30T15:54:23.007Z,4.50
2018-09-30T15:56:57.413Z,4.53
2018-09-30T15:59:31.759Z,4.90
2018-09-30T16:02:06.392Z,4.78
2018-09-30T16:04:40.750Z,5.08
2018-09-30T16:07:15.153Z,5.12
2018-09-30T16:09:49.404Z,9.15
2018-09-30T16:12:23.775Z,9.58
2018-09-30T16:14:58.178Z,9.53
2018-09-30T16:17:32.648Z,6.00
2018-09-30T16:20:07.104Z,4.80
2018-09-30T16:22:41.586Z,4.40
2018-09-30T16:25:16.020Z,4.92
2018-09-30T16:27:50.521Z,6.40
2018-09-30T16:30:24.790Z,4.95
2018-09-30T16:32:59.172Z,4.47
2018-09-30T16:35:33.608Z,5.05
2018-09-30T16:38:08.061Z,5.28
2018-09-30T16:40:42.323Z,5.70
2018-09-30T16:43:17.016Z,5.80
2018-09-30T16:45:51.523Z,5.12
2018-09-30T16:48:25.964Z,6.05
2018-09-30T16:51:00.411Z,6.25
2018-09-30T16:53:34.775Z,7.00
2018-09-30T16:56:09.289Z,6.40
2018-09-30T16:58:43.704Z,6.17
2018-09-30T17:01:18.024Z,6.50
2018-09-30T17:03:52.432Z,7.95
2018-09-30T17:06:26.703Z,7.28
2018-09-30T17:09:01.013Z,9.30
2018-09-30T17:11:35.647Z,27.67
2018-09-30T17:14:09.951Z,14.83
2018-09-30T17:16:44.615Z,12.40
2018-09-30T17:19:19.107Z,9.20
2018-09-30T17:21:53.581Z,9.10
2018-09-30T17:24:28.117Z,8.25
2018-09-30T17:27:02.372Z,7.95
2018-09-30T17:29:36.667Z,7.60
2018-09-30T17:32:11.028Z,9.18
2018-09-30T17:34:45.471Z,11.18
2018-09-30T17:37:19.791Z,9.70
2018-09-30T17:39:54.540Z,8.70
2018-09-30T17:42:28.968Z,9.98
2018-09-30T17:45:03.260Z,9.30
2018-09-30T17:47:37.555Z,9.50
2018-09-30T17:50:11.935Z,11.20
2018-09-30T17:52:46.396Z,12.60
2018-09-30T17:55:20.751Z,12.45
2018-09-30T17:57:55.083Z,12.28
2018-09-30T18:00:29.651Z,11.75
2018-09-30T18:03:03.983Z,12.47
2018-09-30T18:05:38.459Z,12.85
2018-09-30T18:08:12.721Z,13.30
2018-09-30T18:10:47.290Z,12.28
2018-09-30T18:13:21.743Z,13.00
2018-09-30T18:15:56.136Z,17.00
2018-09-30T18:18:30.484Z,16.02
2018-09-30T18:21:04.803Z,17.27
2018-09-30T18:23:39.134Z,11.73
2018-09-30T18:26:13.475Z,12.28
2018-09-30T18:28:47.887Z,12.80
2018-09-30T18:31:22.340Z,12.53
2018-09-30T18:33:56.732Z,12.15
2018-09-30T18:36:31.256Z,11.18
2018-09-30T18:39:08.336Z,10.32
2018-09-30T18:41:42.872Z,12.15
2018-09-30T18:44:17.560Z,11.83
2018-09-30T18:46:52.093Z,13.55
2018-09-30T18:49:26.508Z,11.60
2018-09-30T18:52:00.808Z,13.43
2018-09-30T18:54:35.166Z,13.15
2018-09-30T18:57:09.673Z,13.62
2018-09-30T18:59:44.019Z,13.85
2018-09-30T19:02:18.411Z,14.00
2018-09-30T19:04:52.722Z,13.25
2018-09-30T19:07:27.043Z,12.80
2018-09-30T19:10:01.489Z,13.55
2018-09-30T19:12:35.792Z,14.45
2018-09-30T19:15:10.221Z,15.00
2018-09-30T19:17:44.616Z,17.23
2018-09-30T19:20:19.721Z,20.20
2018-09-30T19:22:54.132Z,22.90
2018-09-30T19:25:28.453Z,18.20
2018-09-30T19:28:02.924Z,15.72
2018-09-30T19:30:37.279Z,15.28
2018-09-30T19:33:11.672Z,17.20
2018-09-30T19:35:49.104Z,16.52
2018-09-30T19:38:23.559Z,17.00
2018-09-30T19:40:57.940Z,18.42
2018-09-30T19:43:32.471Z,16.07
2018-09-30T19:46:07.243Z,16.50
2018-09-30T19:48:41.860Z,16.45
2018-09-30T19:51:16.147Z,16.30
2018-09-30T19:53:50.619Z,16.15
2018-09-30T19:56:24.984Z,18.17
2018-09-30T19:58:59.566Z,14.85
2018-09-30T20:01:33.995Z,15.35
2018-09-30T20:04:08.404Z,15.98
2018-09-30T20:06:43.188Z,11.08
2018-09-30T20:09:17.835Z,10.35
2018-09-30T20:11:52.112Z,11.63
2018-09-30T20:14:26.677Z,11.85
2018-09-30T20:17:01.171Z,13.40
2018-09-30T20:19:35.846Z,20.85
2018-09-30T20:22:11.364Z,18.35
2018-09-30T20:24:46.155Z,13.00
2018-09-30T20:27:20.476Z,9.15
2018-09-30T20:29:54.838Z,10.63
2018-09-30T20:32:29.396Z,10.03
2018-09-30T20:35:03.861Z,12.53
2018-09-30T20:37:38.297Z,11.95
2018-09-30T20:40:13.768Z,11.20
2018-09-30T20:42:48.123Z,12.20
2018-09-30T20:45:22.503Z,13.90
2018-09-30T20:47:56.923Z,13.00
2018-09-30T20:50:31.337Z,13.58
2018-09-30T20:53:06.756Z,12.10
2018-09-30T20:55:41.203Z,12.53
2018-09-30T20:58:15.552Z,12.50
2018-09-30T21:00:49.947Z,12.25
2018-09-30T21:03:24.255Z,11.95
2018-09-30T21:06:20.463Z,12.53
2018-09-30T21:08:54.731Z,13.25
2018-09-30T21:11:29.497Z,14.33
2018-09-30T21:14:04.430Z,14.60
2018-09-30T21:16:39.015Z,32.40
2018-09-30T21:19:13.765Z,26.15
2018-09-30T21:21:48.105Z,27.05
2018-09-30T21:24:22.790Z,14.13
2018-09-30T21:26:57.483Z,11.95
2018-09-30T21:29:31.828Z,12.80
2018-09-30T21:32:06.454Z,10.40
2018-09-30T21:34:41.457Z,11.25
2018-09-30T21:37:16.071Z,13.00
2018-09-30T21:39:51.157Z,12.43
2018-09-30T21:42:25.844Z,12.73
2018-09-30T21:45:02.502Z,12.20
2018-09-30T21:47:37.067Z,12.35
2018-09-30T21:50:11.506Z,11.93
2018-09-30T21:52:46.143Z,12.78
2018-09-30T21:55:20.902Z,11.85
2018-09-30T21:57:55.532Z,11.15
2018-09-30T22:00:35.853Z,12.33
2018-09-30T22:03:12.950Z,12.25
2018-09-30T22:05:47.906Z,11.70
2018-09-30T22:08:22.503Z,13.03
2018-09-30T22:10:57.070Z,15.25
2018-09-30T22:13:31.634Z,24.82
2018-09-30T22:16:06.351Z,17.95
2018-09-30T22:18:40.677Z,20.52
2018-09-30T22:21:15.308Z,12.93
2018-09-30T22:23:49.614Z,14.38
2018-09-30T22:26:24.257Z,12.20
2018-09-30T22:28:58.731Z,13.40
2018-09-30T22:31:32.995Z,12.73
2018-09-30T22:34:07.401Z,12.88
2018-09-30T22:36:41.791Z,12.78
2018-09-30T22:39:16.251Z,13.58
2018-09-30T22:41:50.675Z,13.20
2018-09-30T22:44:25.111Z,13.20
2018-09-30T22:46:59.467Z,11.75
2018-09-30T22:49:34.041Z,12.03
2018-09-30T22:52:08.807Z,13.80
2018-09-30T22:54:43.356Z,12.05
2018-09-30T22:57:17.762Z,12.35
2018-09-30T22:59:52.447Z,12.70
2018-09-30T23:02:26.915Z,13.25
2018-09-30T23:05:01.500Z,12.43
2018-09-30T23:07:35.908Z,13.48
2018-09-30T23:10:11.755Z,13.32
2018-09-30T23:12:46.224Z,13.00
2018-09-30T23:15:21.082Z,12.43
2018-09-30T23:17:55.572Z,12.20
2018-09-30T23:20:30.592Z,12.05
2018-09-30T23:23:05.313Z,12.58
2018-09-30T23:25:40.426Z,14.20
2018-09-30T23:28:14.991Z,13.38
2018-09-30T23:30:49.623Z,13.30
2018-09-30T23:33:24.130Z,12.93
2018-09-30T23:35:58.542Z,15.58
2018-09-30T23:38:33.063Z,15.65
2018-09-30T23:41:07.556Z,18.90
2018-09-30T23:43:42.101Z,21.37
2018-09-30T23:46:16.766Z,13.28
2018-09-30T23:48:51.748Z,14.68
2018-09-30T23:51:26.369Z,14.10
2018-09-30T23:54:03.821Z,14.58
2018-09-30T23:56:38.486Z,15.18
2018-09-30T23:59:12.979Z,14.53
